sensor_id;sensor_type;location;lat;lon;timestamp;P1;durP1;ratioP1;P2;durP2;ratioP2
56868;SDS011;42754;0.000;0.000;2022-09-12T00:03:51;14.88;;;6.30;;
56868;SDS011;42754;0.000;0.000;2022-09-12T00:06:19;9.77;;;5.90;;
56868;SDS011;42754;0.000;0.000;2022-09-12T00:08:52;10.07;;;5.28;;
56868;SDS011;42754;0.000;0.000;2022-09-12T00:11:19;9.10;;;5.68;;
56868;SDS011;42754;0.000;0.000;2022-09-12T00:13:44;9.23;;;5.65;;
56868;SDS011;42754;0.000;0.000;2022-09-12T00:16:17;12.90;;;6.28;;
56868;SDS011;42754;0.000;0.000;2022-09-12T00:18:45;11.55;;;6.18;;
56868;SDS011;42754;0.000;0.000;2022-09-12T00:21:11;13.18;;;7.65;;
56868;SDS011;42754;0.000;0.000;2022-09-12T00:23:38;12.85;;;6.97;;
56868;SDS011;42754;0.000;0.000;2022-09-12T00:26:04;13.13;;;6.65;;
56868;SDS011;42754;0.000;0.000;2022-09-12T00:28:31;11.32;;;7.18;;
56868;SDS011;42754;0.000;0.000;2022-09-12T00:30:58;12.25;;;6.70;;
56868;SDS011;42754;0.000;0.000;2022-09-12T00:33:23;18.00;;;6.57;;
56868;SDS011;42754;0.000;0.000;2022-09-12T00:35:50;12.95;;;6.78;;
56868;SDS011;42754;0.000;0.000;2022-09-12T00:38:19;14.70;;;7.22;;
56868;SDS011;42754;0.000;0.000;2022-09-12T00:40:45;10.80;;;6.47;;
56868;SDS011;42754;0.000;0.000;2022-09-12T00:43:33;12.63;;;7.20;;
56868;SDS011;42754;0.000;0.000;2022-09-12T00:46:01;13.15;;;6.90;;
56868;SDS011;42754;0.000;0.000;2022-09-12T00:48:41;25.05;;;8.05;;
56868;SDS011;42754;0.000;0.000;2022-09-12T00:51:11;16.07;;;8.27;;
56868;SDS011;42754;0.000;0.000;2022-09-12T00:53:39;14.63;;;8.50;;
56868;SDS011;42754;0.000;0.000;2022-09-12T00:56:07;15.57;;;8.82;;
56868;SDS011;42754;0.000;0.000;2022-09-12T00:58:39;17.40;;;9.18;;
56868;SDS011;42754;0.000;0.000;2022-09-12T01:01:14;14.23;;;7.63;;
56868;SDS011;42754;0.000;0.000;2022-09-12T01:03:40;15.10;;;8.40;;
56868;SDS011;42754;0.000;0.000;2022-09-12T01:06:14;18.17;;;9.95;;
56868;SDS011;42754;0.000;0.000;2022-09-12T01:08:56;15.93;;;8.20;;
56868;SDS011;42754;0.000;0.000;2022-09-12T01:11:23;16.73;;;8.52;;
56868;SDS011;42754;0.000;0.000;2022-09-12T01:13:49;15.73;;;8.10;;
56868;SDS011;42754;0.000;0.000;2022-09-12T01:16:15;15.40;;;7.90;;
56868;SDS011;42754;0.000;0.000;2022-09-12T01:32:14;13.68;;;7.07;;
56868;SDS011;42754;0.000;0.000;2022-09-12T01:37:25;11.80;;;7.07;;
56868;SDS011;42754;0.000;0.000;2022-09-12T01:45:44;11.63;;;6.70;;
56868;SDS011;42754;0.000;0.000;2022-09-12T01:48:23;17.58;;;6.20;;
56868;SDS011;42754;0.000;0.000;2022-09-12T01:51:00;10.40;;;6.47;;
56868;SDS011;42754;0.000;0.000;2022-09-12T01:53:56;11.32;;;6.60;;
56868;SDS011;42754;0.000;0.000;2022-09-12T01:56:32;11.70;;;7.00;;
56868;SDS011;42754;0.000;0.000;2022-09-12T02:01:50;9.82;;;5.78;;
56868;SDS011;42754;0.000;0.000;2022-09-12T02:04:22;12.55;;;6.95;;
56868;SDS011;42754;0.000;0.000;2022-09-12T02:07:15;12.13;;;6.88;;
56868;SDS011;42754;0.000;0.000;2022-09-12T02:09:46;11.63;;;6.28;;
56868;SDS011;42754;0.000;0.000;2022-09-12T02:12:23;11.07;;;6.72;;
56868;SDS011;42754;0.000;0.000;2022-09-12T02:14:54;12.25;;;7.35;;
56868;SDS011;42754;0.000;0.000;2022-09-12T02:17:26;12.75;;;6.65;;
56868;SDS011;42754;0.000;0.000;2022-09-12T02:19:57;14.18;;;7.30;;
56868;SDS011;42754;0.000;0.000;2022-09-12T02:22:30;12.15;;;7.28;;
56868;SDS011;42754;0.000;0.000;2022-09-12T02:24:59;16.83;;;7.95;;
56868;SDS011;42754;0.000;0.000;2022-09-12T02:27:29;16.65;;;8.43;;
56868;SDS011;42754;0.000;0.000;2022-09-12T02:30:02;14.57;;;8.00;;
56868;SDS011;42754;0.000;0.000;2022-09-12T02:32:40;16.45;;;9.18;;
56868;SDS011;42754;0.000;0.000;2022-09-12T02:35:15;16.45;;;7.95;;
56868;SDS011;42754;0.000;0.000;2022-09-12T02:38:03;15.25;;;7.45;;
56868;SDS011;42754;0.000;0.000;2022-09-12T02:40:52;16.58;;;8.32;;
56868;SDS011;42754;0.000;0.000;2022-09-12T02:43:18;16.00;;;7.82;;
56868;SDS011;42754;0.000;0.000;2022-09-12T02:45:44;16.77;;;8.40;;
56868;SDS011;42754;0.000;0.000;2022-09-12T02:50:41;22.40;;;8.80;;
56868;SDS011;42754;0.000;0.000;2022-09-12T02:53:07;17.65;;;8.60;;
56868;SDS011;42754;0.000;0.000;2022-09-12T02:55:35;16.45;;;8.50;;
56868;SDS011;42754;0.000;0.000;2022-09-12T02:58:03;18.45;;;9.65;;
56868;SDS011;42754;0.000;0.000;2022-09-12T03:01:07;18.50;;;8.45;;
56868;SDS011;42754;0.000;0.000;2022-09-12T03:18:03;14.75;;;8.35;;
56868;SDS011;42754;0.000;0.000;2022-09-12T03:23:13;13.88;;;8.02;;
56868;SDS011;42754;0.000;0.000;2022-09-12T03:26:01;21.98;;;8.68;;
56868;SDS011;42754;0.000;0.000;2022-09-12T03:30:55;16.73;;;7.88;;
56868;SDS011;42754;0.000;0.000;2022-09-12T03:33:22;15.73;;;8.00;;
56868;SDS011;42754;0.000;0.000;2022-09-12T03:35:49;17.63;;;9.10;;
56868;SDS011;42754;0.000;0.000;2022-09-12T03:38:15;17.35;;;8.45;;
56868;SDS011;42754;0.000;0.000;2022-09-12T03:40:41;18.08;;;9.43;;
56868;SDS011;42754;0.000;0.000;2022-09-12T03:43:08;17.42;;;9.20;;
56868;SDS011;42754;0.000;0.000;2022-09-12T03:45:34;18.55;;;9.02;;
56868;SDS011;42754;0.000;0.000;2022-09-12T03:48:01;18.33;;;9.63;;
56868;SDS011;42754;0.000;0.000;2022-09-12T03:50:27;16.63;;;8.57;;
56868;SDS011;42754;0.000;0.000;2022-09-12T03:52:52;17.80;;;8.57;;
56868;SDS011;42754;0.000;0.000;2022-09-12T03:55:18;18.40;;;8.82;;
56868;SDS011;42754;0.000;0.000;2022-09-12T03:57:43;21.40;;;9.05;;
56868;SDS011;42754;0.000;0.000;2022-09-12T04:00:09;17.63;;;8.90;;
56868;SDS011;42754;0.000;0.000;2022-09-12T04:02:35;17.10;;;8.85;;
56868;SDS011;42754;0.000;0.000;2022-09-12T04:05:01;20.83;;;9.18;;
56868;SDS011;42754;0.000;0.000;2022-09-12T04:07:27;18.60;;;8.23;;
56868;SDS011;42754;0.000;0.000;2022-09-12T04:09:53;16.25;;;9.48;;
56868;SDS011;42754;0.000;0.000;2022-09-12T04:12:20;18.90;;;9.35;;
56868;SDS011;42754;0.000;0.000;2022-09-12T04:14:45;18.75;;;8.98;;
56868;SDS011;42754;0.000;0.000;2022-09-12T04:17:11;20.52;;;8.43;;
56868;SDS011;42754;0.000;0.000;2022-09-12T04:19:38;18.38;;;8.80;;
56868;SDS011;42754;0.000;0.000;2022-09-12T04:22:03;19.10;;;10.02;;
56868;SDS011;42754;0.000;0.000;2022-09-12T04:24:30;20.25;;;10.25;;
56868;SDS011;42754;0.000;0.000;2022-09-12T04:26:56;22.92;;;9.52;;
56868;SDS011;42754;0.000;0.000;2022-09-12T04:29:21;18.08;;;9.35;;
56868;SDS011;42754;0.000;0.000;2022-09-12T04:31:47;18.08;;;9.32;;
56868;SDS011;42754;0.000;0.000;2022-09-12T04:34:12;21.13;;;10.30;;
56868;SDS011;42754;0.000;0.000;2022-09-12T04:36:39;21.38;;;9.35;;
56868;SDS011;42754;0.000;0.000;2022-09-12T04:39:05;19.17;;;10.07;;
56868;SDS011;42754;0.000;0.000;2022-09-12T04:41:36;21.30;;;9.27;;
56868;SDS011;42754;0.000;0.000;2022-09-12T04:44:04;20.23;;;9.45;;
56868;SDS011;42754;0.000;0.000;2022-09-12T04:46:40;24.10;;;9.32;;
56868;SDS011;42754;0.000;0.000;2022-09-12T04:49:09;23.13;;;11.02;;
56868;SDS011;42754;0.000;0.000;2022-09-12T04:51:35;19.33;;;9.63;;
56868;SDS011;42754;0.000;0.000;2022-09-12T04:54:03;19.50;;;9.75;;
56868;SDS011;42754;0.000;0.000;2022-09-12T04:56:30;19.67;;;9.75;;
56868;SDS011;42754;0.000;0.000;2022-09-12T04:58:58;20.83;;;10.43;;
56868;SDS011;42754;0.000;0.000;2022-09-12T05:01:25;23.10;;;10.45;;
56868;SDS011;42754;0.000;0.000;2022-09-12T05:03:52;19.15;;;9.90;;
56868;SDS011;42754;0.000;0.000;2022-09-12T05:06:20;32.33;;;10.82;;
56868;SDS011;42754;0.000;0.000;2022-09-12T05:08:48;20.48;;;10.30;;
56868;SDS011;42754;0.000;0.000;2022-09-12T05:11:21;19.95;;;9.75;;
56868;SDS011;42754;0.000;0.000;2022-09-12T05:13:49;24.38;;;10.90;;
56868;SDS011;42754;0.000;0.000;2022-09-12T05:16:15;22.65;;;10.77;;
56868;SDS011;42754;0.000;0.000;2022-09-12T05:18:42;18.02;;;9.63;;
56868;SDS011;42754;0.000;0.000;2022-09-12T05:21:10;22.25;;;10.35;;
56868;SDS011;42754;0.000;0.000;2022-09-12T05:23:37;25.30;;;10.82;;
56868;SDS011;42754;0.000;0.000;2022-09-12T05:26:03;21.38;;;10.32;;
56868;SDS011;42754;0.000;0.000;2022-09-12T05:28:32;20.80;;;10.38;;
56868;SDS011;42754;0.000;0.000;2022-09-12T05:31:00;24.05;;;10.57;;
56868;SDS011;42754;0.000;0.000;2022-09-12T05:33:27;23.77;;;11.77;;
56868;SDS011;42754;0.000;0.000;2022-09-12T05:35:53;20.02;;;10.45;;
56868;SDS011;42754;0.000;0.000;2022-09-12T05:38:18;22.20;;;11.40;;
56868;SDS011;42754;0.000;0.000;2022-09-12T05:40:44;21.27;;;10.60;;
56868;SDS011;42754;0.000;0.000;2022-09-12T05:43:09;18.25;;;8.73;;
56868;SDS011;42754;0.000;0.000;2022-09-12T05:45:36;20.85;;;10.10;;
56868;SDS011;42754;0.000;0.000;2022-09-12T05:48:02;21.80;;;9.55;;
56868;SDS011;42754;0.000;0.000;2022-09-12T05:50:29;22.88;;;10.93;;
56868;SDS011;42754;0.000;0.000;2022-09-12T05:52:55;23.65;;;10.00;;
56868;SDS011;42754;0.000;0.000;2022-09-12T05:55:21;30.80;;;10.80;;
56868;SDS011;42754;0.000;0.000;2022-09-12T05:57:47;23.05;;;10.25;;
56868;SDS011;42754;0.000;0.000;2022-09-12T06:00:13;24.27;;;9.35;;
56868;SDS011;42754;0.000;0.000;2022-09-12T06:02:39;23.27;;;9.32;;
56868;SDS011;42754;0.000;0.000;2022-09-12T06:05:04;24.13;;;10.77;;
56868;SDS011;42754;0.000;0.000;2022-09-12T06:07:30;24.20;;;10.80;;
56868;SDS011;42754;0.000;0.000;2022-09-12T06:09:56;23.30;;;10.35;;
56868;SDS011;42754;0.000;0.000;2022-09-12T06:12:23;26.02;;;11.48;;
56868;SDS011;42754;0.000;0.000;2022-09-12T06:14:51;29.98;;;11.18;;
56868;SDS011;42754;0.000;0.000;2022-09-12T06:17:16;31.35;;;12.60;;
56868;SDS011;42754;0.000;0.000;2022-09-12T06:19:42;25.75;;;11.93;;
56868;SDS011;42754;0.000;0.000;2022-09-12T06:22:08;22.85;;;11.05;;
56868;SDS011;42754;0.000;0.000;2022-09-12T06:24:34;30.40;;;14.32;;
56868;SDS011;42754;0.000;0.000;2022-09-12T06:27:00;30.27;;;13.15;;
56868;SDS011;42754;0.000;0.000;2022-09-12T06:29:26;28.05;;;12.38;;
56868;SDS011;42754;0.000;0.000;2022-09-12T06:31:53;32.50;;;14.60;;
56868;SDS011;42754;0.000;0.000;2022-09-12T06:34:18;37.53;;;14.57;;
56868;SDS011;42754;0.000;0.000;2022-09-12T06:36:45;36.25;;;15.55;;
56868;SDS011;42754;0.000;0.000;2022-09-12T06:39:12;39.03;;;14.52;;
56868;SDS011;42754;0.000;0.000;2022-09-12T06:41:40;38.72;;;15.73;;
56868;SDS011;42754;0.000;0.000;2022-09-12T06:44:06;52.15;;;22.33;;
56868;SDS011;42754;0.000;0.000;2022-09-12T06:46:34;38.97;;;17.77;;
56868;SDS011;42754;0.000;0.000;2022-09-12T06:49:00;66.53;;;27.48;;
56868;SDS011;42754;0.000;0.000;2022-09-12T06:51:26;39.22;;;16.20;;
56868;SDS011;42754;0.000;0.000;2022-09-12T06:53:53;66.03;;;27.40;;
56868;SDS011;42754;0.000;0.000;2022-09-12T06:56:22;72.78;;;28.63;;
56868;SDS011;42754;0.000;0.000;2022-09-12T06:58:49;81.18;;;29.60;;
56868;SDS011;42754;0.000;0.000;2022-09-12T07:01:16;76.57;;;26.90;;
56868;SDS011;42754;0.000;0.000;2022-09-12T07:03:53;71.82;;;28.70;;
56868;SDS011;42754;0.000;0.000;2022-09-12T07:06:21;60.83;;;23.77;;
56868;SDS011;42754;0.000;0.000;2022-09-12T07:08:48;52.28;;;21.75;;
56868;SDS011;42754;0.000;0.000;2022-09-12T07:11:15;50.30;;;21.10;;
56868;SDS011;42754;0.000;0.000;2022-09-12T07:13:45;42.42;;;18.50;;
56868;SDS011;42754;0.000;0.000;2022-09-12T07:16:12;52.78;;;21.17;;
56868;SDS011;42754;0.000;0.000;2022-09-12T07:18:38;57.20;;;24.25;;
56868;SDS011;42754;0.000;0.000;2022-09-12T07:21:06;77.88;;;30.17;;
56868;SDS011;42754;0.000;0.000;2022-09-12T07:23:34;92.32;;;33.38;;
56868;SDS011;42754;0.000;0.000;2022-09-12T07:26:00;99.90;;;36.25;;
56868;SDS011;42754;0.000;0.000;2022-09-12T07:28:27;81.50;;;34.63;;
56868;SDS011;42754;0.000;0.000;2022-09-12T07:30:56;83.65;;;33.92;;
56868;SDS011;42754;0.000;0.000;2022-09-12T07:33:28;72.47;;;28.98;;
56868;SDS011;42754;0.000;0.000;2022-09-12T07:35:54;69.30;;;29.58;;
56868;SDS011;42754;0.000;0.000;2022-09-12T07:38:24;63.55;;;29.20;;
56868;SDS011;42754;0.000;0.000;2022-09-12T07:40:50;66.55;;;28.13;;
56868;SDS011;42754;0.000;0.000;2022-09-12T07:43:15;75.00;;;28.38;;
56868;SDS011;42754;0.000;0.000;2022-09-12T07:45:41;66.43;;;29.40;;
56868;SDS011;42754;0.000;0.000;2022-09-12T07:48:07;69.53;;;29.35;;
56868;SDS011;42754;0.000;0.000;2022-09-12T07:50:34;63.28;;;26.20;;
56868;SDS011;42754;0.000;0.000;2022-09-12T07:53:01;56.28;;;26.42;;
56868;SDS011;42754;0.000;0.000;2022-09-12T07:55:27;57.08;;;26.60;;
56868;SDS011;42754;0.000;0.000;2022-09-12T07:57:54;56.15;;;26.52;;
56868;SDS011;42754;0.000;0.000;2022-09-12T08:00:19;56.53;;;27.13;;
56868;SDS011;42754;0.000;0.000;2022-09-12T08:02:49;60.85;;;27.33;;
56868;SDS011;42754;0.000;0.000;2022-09-12T08:05:18;55.85;;;26.48;;
56868;SDS011;42754;0.000;0.000;2022-09-12T08:07:47;57.35;;;26.17;;
56868;SDS011;42754;0.000;0.000;2022-09-12T08:10:13;61.33;;;27.02;;
56868;SDS011;42754;0.000;0.000;2022-09-12T08:12:40;66.45;;;28.42;;
56868;SDS011;42754;0.000;0.000;2022-09-12T08:15:06;62.20;;;25.85;;
56868;SDS011;42754;0.000;0.000;2022-09-12T08:17:32;61.70;;;29.35;;
56868;SDS011;42754;0.000;0.000;2022-09-12T08:19:58;54.97;;;26.75;;
56868;SDS011;42754;0.000;0.000;2022-09-12T08:22:23;55.10;;;26.65;;
56868;SDS011;42754;0.000;0.000;2022-09-12T08:24:49;50.80;;;23.95;;
56868;SDS011;42754;0.000;0.000;2022-09-12T08:27:15;49.78;;;23.40;;
56868;SDS011;42754;0.000;0.000;2022-09-12T08:29:41;47.33;;;24.17;;
56868;SDS011;42754;0.000;0.000;2022-09-12T08:32:06;48.00;;;23.58;;
56868;SDS011;42754;0.000;0.000;2022-09-12T08:34:32;39.50;;;19.30;;
56868;SDS011;42754;0.000;0.000;2022-09-12T08:36:58;48.80;;;22.30;;
56868;SDS011;42754;0.000;0.000;2022-09-12T08:39:24;47.95;;;24.40;;
56868;SDS011;42754;0.000;0.000;2022-09-12T08:44:42;42.90;;;21.77;;
56868;SDS011;42754;0.000;0.000;2022-09-12T08:47:36;44.75;;;22.27;;
56868;SDS011;42754;0.000;0.000;2022-09-12T08:55:12;36.40;;;19.63;;
56868;SDS011;42754;0.000;0.000;2022-09-12T08:57:50;41.95;;;21.00;;
56868;SDS011;42754;0.000;0.000;2022-09-12T09:00:17;35.33;;;18.65;;
56868;SDS011;42754;0.000;0.000;2022-09-12T09:05:57;38.53;;;19.60;;
56868;SDS011;42754;0.000;0.000;2022-09-12T09:08:37;32.72;;;17.40;;
56868;SDS011;42754;0.000;0.000;2022-09-12T09:11:46;37.95;;;19.65;;
56868;SDS011;42754;0.000;0.000;2022-09-12T09:17:13;38.58;;;19.48;;
56868;SDS011;42754;0.000;0.000;2022-09-12T09:19:44;36.38;;;20.20;;
56868;SDS011;42754;0.000;0.000;2022-09-12T09:23:01;35.58;;;19.70;;
56868;SDS011;42754;0.000;0.000;2022-09-12T09:25:03;37.97;;;19.02;;
56868;SDS011;42754;0.000;0.000;2022-09-12T09:27:42;30.42;;;16.50;;
56868;SDS011;42754;0.000;0.000;2022-09-12T09:30:14;39.25;;;20.35;;
56868;SDS011;42754;0.000;0.000;2022-09-12T09:32:43;35.17;;;18.35;;
56868;SDS011;42754;0.000;0.000;2022-09-12T09:35:17;35.13;;;19.38;;
56868;SDS011;42754;0.000;0.000;2022-09-12T09:43:33;35.88;;;18.45;;
56868;SDS011;42754;0.000;0.000;2022-09-12T09:45:59;31.30;;;18.67;;
56868;SDS011;42754;0.000;0.000;2022-09-12T09:50:59;33.30;;;17.38;;
56868;SDS011;42754;0.000;0.000;2022-09-12T09:53:47;33.88;;;17.80;;
56868;SDS011;42754;0.000;0.000;2022-09-12T09:56:33;32.10;;;18.45;;
56868;SDS011;42754;0.000;0.000;2022-09-12T10:01:48;34.08;;;19.35;;
56868;SDS011;42754;0.000;0.000;2022-09-12T10:04:17;30.40;;;16.77;;
56868;SDS011;42754;0.000;0.000;2022-09-12T10:06:45;27.88;;;15.43;;
56868;SDS011;42754;0.000;0.000;2022-09-12T10:11:39;22.80;;;12.95;;
56868;SDS011;42754;0.000;0.000;2022-09-12T10:14:17;34.13;;;19.42;;
56868;SDS011;42754;0.000;0.000;2022-09-12T10:16:52;26.35;;;13.73;;
56868;SDS011;42754;0.000;0.000;2022-09-12T10:19:22;28.58;;;15.48;;
56868;SDS011;42754;0.000;0.000;2022-09-12T10:21:56;25.13;;;14.32;;
56868;SDS011;42754;0.000;0.000;2022-09-12T10:24:46;27.83;;;13.65;;
56868;SDS011;42754;0.000;0.000;2022-09-12T10:37:17;22.63;;;11.63;;
56868;SDS011;42754;0.000;0.000;2022-09-12T10:39:52;16.52;;;9.38;;
56868;SDS011;42754;0.000;0.000;2022-09-12T10:45:25;14.75;;;9.15;;
56868;SDS011;42754;0.000;0.000;2022-09-12T10:47:53;11.48;;;7.30;;
56868;SDS011;42754;0.000;0.000;2022-09-12T10:50:23;14.18;;;7.07;;
56868;SDS011;42754;0.000;0.000;2022-09-12T10:56:02;11.18;;;6.38;;
56868;SDS011;42754;0.000;0.000;2022-09-12T10:58:39;12.83;;;8.17;;
56868;SDS011;42754;0.000;0.000;2022-09-12T11:07:13;15.48;;;8.73;;
56868;SDS011;42754;0.000;0.000;2022-09-12T11:15:25;11.23;;;6.90;;
56868;SDS011;42754;0.000;0.000;2022-09-12T11:17:59;13.13;;;7.53;;
56868;SDS011;42754;0.000;0.000;2022-09-12T11:23:25;15.38;;;8.75;;
56868;SDS011;42754;0.000;0.000;2022-09-12T11:46:30;9.77;;;4.75;;
56868;SDS011;42754;0.000;0.000;2022-09-12T11:51:40;8.75;;;4.20;;
56868;SDS011;42754;0.000;0.000;2022-09-12T11:54:32;7.03;;;3.63;;
56868;SDS011;42754;0.000;0.000;2022-09-12T11:57:15;6.10;;;2.83;;
56868;SDS011;42754;0.000;0.000;2022-09-12T12:00:03;5.57;;;3.17;;
56868;SDS011;42754;0.000;0.000;2022-09-12T12:08:23;5.45;;;3.80;;
56868;SDS011;42754;0.000;0.000;2022-09-12T12:10:54;8.27;;;4.20;;
56868;SDS011;42754;0.000;0.000;2022-09-12T12:16:00;6.47;;;4.05;;
56868;SDS011;42754;0.000;0.000;2022-09-12T12:18:31;6.20;;;3.15;;
56868;SDS011;42754;0.000;0.000;2022-09-12T12:36:56;4.70;;;2.83;;
56868;SDS011;42754;0.000;0.000;2022-09-12T12:42:01;4.32;;;3.00;;
56868;SDS011;42754;0.000;0.000;2022-09-12T12:47:14;6.00;;;3.55;;
56868;SDS011;42754;0.000;0.000;2022-09-12T12:49:48;6.30;;;4.18;;
56868;SDS011;42754;0.000;0.000;2022-09-12T12:52:16;4.80;;;3.60;;
56868;SDS011;42754;0.000;0.000;2022-09-12T12:57:15;7.05;;;4.88;;
56868;SDS011;42754;0.000;0.000;2022-09-12T13:00:03;6.32;;;4.13;;
56868;SDS011;42754;0.000;0.000;2022-09-12T13:05:20;5.22;;;3.72;;
56868;SDS011;42754;0.000;0.000;2022-09-12T13:07:58;3.50;;;3.13;;
56868;SDS011;42754;0.000;0.000;2022-09-12T13:10:28;5.45;;;3.42;;
56868;SDS011;42754;0.000;0.000;2022-09-12T13:12:56;8.15;;;4.18;;
56868;SDS011;42754;0.000;0.000;2022-09-12T13:18:03;5.18;;;3.65;;
56868;SDS011;42754;0.000;0.000;2022-09-12T13:20:43;7.90;;;4.45;;
56868;SDS011;42754;0.000;0.000;2022-09-12T13:23:23;4.95;;;3.33;;
56868;SDS011;42754;0.000;0.000;2022-09-12T13:25:56;5.90;;;4.15;;
56868;SDS011;42754;0.000;0.000;2022-09-12T13:28:23;6.30;;;4.20;;
56868;SDS011;42754;0.000;0.000;2022-09-12T13:33:35;3.58;;;2.60;;
56868;SDS011;42754;0.000;0.000;2022-09-12T13:44:43;2.78;;;2.20;;
56868;SDS011;42754;0.000;0.000;2022-09-12T13:47:17;3.95;;;2.80;;
56868;SDS011;42754;0.000;0.000;2022-09-12T13:49:56;4.43;;;2.63;;
56868;SDS011;42754;0.000;0.000;2022-09-12T13:52:27;6.07;;;3.15;;
56868;SDS011;42754;0.000;0.000;2022-09-12T13:54:56;4.28;;;3.30;;
56868;SDS011;42754;0.000;0.000;2022-09-12T14:00:24;5.18;;;3.00;;
56868;SDS011;42754;0.000;0.000;2022-09-12T14:02:48;6.65;;;4.05;;
56868;SDS011;42754;0.000;0.000;2022-09-12T14:05:34;7.28;;;4.00;;
56868;SDS011;42754;0.000;0.000;2022-09-12T14:08:04;5.25;;;3.17;;
56868;SDS011;42754;0.000;0.000;2022-09-12T14:10:33;4.68;;;2.90;;
56868;SDS011;42754;0.000;0.000;2022-09-12T14:13:02;5.25;;;3.25;;
56868;SDS011;42754;0.000;0.000;2022-09-12T14:15:35;5.78;;;2.80;;
56868;SDS011;42754;0.000;0.000;2022-09-12T14:18:02;4.75;;;3.40;;
56868;SDS011;42754;0.000;0.000;2022-09-12T14:20:29;5.53;;;2.97;;
56868;SDS011;42754;0.000;0.000;2022-09-12T14:23:01;6.35;;;3.08;;
56868;SDS011;42754;0.000;0.000;2022-09-12T14:25:42;2.75;;;2.47;;
56868;SDS011;42754;0.000;0.000;2022-09-12T14:28:11;3.92;;;2.92;;
56868;SDS011;42754;0.000;0.000;2022-09-12T14:30:38;4.10;;;3.30;;
56868;SDS011;42754;0.000;0.000;2022-09-12T14:35:46;4.13;;;3.40;;
56868;SDS011;42754;0.000;0.000;2022-09-12T14:40:41;3.63;;;2.90;;
56868;SDS011;42754;0.000;0.000;2022-09-12T14:43:15;5.68;;;3.58;;
56868;SDS011;42754;0.000;0.000;2022-09-12T14:45:50;6.03;;;3.47;;
56868;SDS011;42754;0.000;0.000;2022-09-12T14:48:23;4.05;;;2.63;;
56868;SDS011;42754;0.000;0.000;2022-09-12T14:50:51;3.72;;;2.95;;
56868;SDS011;42754;0.000;0.000;2022-09-12T14:55:50;3.65;;;2.83;;
56868;SDS011;42754;0.000;0.000;2022-09-12T15:03:31;3.33;;;2.50;;
56868;SDS011;42754;0.000;0.000;2022-09-12T15:06:02;3.97;;;2.70;;
56868;SDS011;42754;0.000;0.000;2022-09-12T15:08:30;3.55;;;2.70;;
56868;SDS011;42754;0.000;0.000;2022-09-12T15:10:56;7.10;;;2.95;;
56868;SDS011;42754;0.000;0.000;2022-09-12T15:13:23;3.97;;;2.90;;
56868;SDS011;42754;0.000;0.000;2022-09-12T15:15:52;3.70;;;2.67;;
56868;SDS011;42754;0.000;0.000;2022-09-12T15:18:22;3.63;;;2.30;;
56868;SDS011;42754;0.000;0.000;2022-09-12T15:20:59;3.40;;;2.55;;
56868;SDS011;42754;0.000;0.000;2022-09-12T15:26:15;3.42;;;2.13;;
56868;SDS011;42754;0.000;0.000;2022-09-12T15:28:46;3.40;;;2.60;;
56868;SDS011;42754;0.000;0.000;2022-09-12T15:31:23;4.95;;;2.55;;
56868;SDS011;42754;0.000;0.000;2022-09-12T15:33:53;3.00;;;2.45;;
56868;SDS011;42754;0.000;0.000;2022-09-12T15:36:20;3.35;;;2.40;;
56868;SDS011;42754;0.000;0.000;2022-09-12T15:38:47;2.78;;;2.15;;
56868;SDS011;42754;0.000;0.000;2022-09-12T15:41:15;5.18;;;2.40;;
56868;SDS011;42754;0.000;0.000;2022-09-12T15:43:50;5.57;;;2.60;;
56868;SDS011;42754;0.000;0.000;2022-09-12T15:46:16;4.70;;;2.38;;
56868;SDS011;42754;0.000;0.000;2022-09-12T15:48:43;4.20;;;2.35;;
56868;SDS011;42754;0.000;0.000;2022-09-12T15:51:12;4.65;;;2.58;;
56868;SDS011;42754;0.000;0.000;2022-09-12T15:53:39;3.53;;;2.53;;
56868;SDS011;42754;0.000;0.000;2022-09-12T15:56:05;4.20;;;2.20;;
56868;SDS011;42754;0.000;0.000;2022-09-12T15:58:31;3.38;;;2.72;;
56868;SDS011;42754;0.000;0.000;2022-09-12T16:00:57;3.75;;;2.42;;
56868;SDS011;42754;0.000;0.000;2022-09-12T16:03:24;3.67;;;2.40;;
56868;SDS011;42754;0.000;0.000;2022-09-12T16:05:55;4.00;;;2.40;;
56868;SDS011;42754;0.000;0.000;2022-09-12T16:08:22;3.38;;;2.65;;
56868;SDS011;42754;0.000;0.000;2022-09-12T16:10:51;4.97;;;2.83;;
56868;SDS011;42754;0.000;0.000;2022-09-12T16:13:19;3.83;;;2.63;;
56868;SDS011;42754;0.000;0.000;2022-09-12T16:15:45;2.80;;;2.50;;
56868;SDS011;42754;0.000;0.000;2022-09-12T16:18:11;6.93;;;2.65;;
56868;SDS011;42754;0.000;0.000;2022-09-12T16:20:37;4.00;;;2.47;;
56868;SDS011;42754;0.000;0.000;2022-09-12T16:23:04;5.32;;;3.05;;
56868;SDS011;42754;0.000;0.000;2022-09-12T16:25:30;4.25;;;2.90;;
56868;SDS011;42754;0.000;0.000;2022-09-12T16:27:56;3.65;;;2.60;;
56868;SDS011;42754;0.000;0.000;2022-09-12T16:30:21;4.47;;;2.58;;
56868;SDS011;42754;0.000;0.000;2022-09-12T16:32:47;4.35;;;2.40;;
56868;SDS011;42754;0.000;0.000;2022-09-12T16:35:13;5.85;;;2.33;;
56868;SDS011;42754;0.000;0.000;2022-09-12T16:37:38;3.22;;;2.55;;
56868;SDS011;42754;0.000;0.000;2022-09-12T16:40:04;2.97;;;2.40;;
56868;SDS011;42754;0.000;0.000;2022-09-12T16:42:31;5.25;;;2.85;;
56868;SDS011;42754;0.000;0.000;2022-09-12T16:44:56;3.90;;;2.70;;
56868;SDS011;42754;0.000;0.000;2022-09-12T16:47:22;3.40;;;2.47;;
56868;SDS011;42754;0.000;0.000;2022-09-12T16:49:48;4.65;;;3.33;;
56868;SDS011;42754;0.000;0.000;2022-09-12T16:52:15;7.20;;;3.03;;
56868;SDS011;42754;0.000;0.000;2022-09-12T16:54:44;3.20;;;2.63;;
56868;SDS011;42754;0.000;0.000;2022-09-12T16:57:10;6.50;;;2.58;;
56868;SDS011;42754;0.000;0.000;2022-09-12T16:59:35;4.07;;;2.95;;
56868;SDS011;42754;0.000;0.000;2022-09-12T17:02:01;4.18;;;3.05;;
56868;SDS011;42754;0.000;0.000;2022-09-12T17:04:27;7.70;;;2.83;;
56868;SDS011;42754;0.000;0.000;2022-09-12T17:06:53;6.07;;;3.00;;
56868;SDS011;42754;0.000;0.000;2022-09-12T17:09:18;5.07;;;3.10;;
56868;SDS011;42754;0.000;0.000;2022-09-12T17:11:45;5.82;;;2.40;;
56868;SDS011;42754;0.000;0.000;2022-09-12T17:14:12;3.20;;;2.70;;
56868;SDS011;42754;0.000;0.000;2022-09-12T17:16:39;6.07;;;2.97;;
56868;SDS011;42754;0.000;0.000;2022-09-12T17:19:07;3.45;;;2.42;;
56868;SDS011;42754;0.000;0.000;2022-09-12T17:21:36;7.55;;;3.03;;
56868;SDS011;42754;0.000;0.000;2022-09-12T17:24:02;7.57;;;2.90;;
56868;SDS011;42754;0.000;0.000;2022-09-12T17:26:27;3.50;;;2.90;;
56868;SDS011;42754;0.000;0.000;2022-09-12T17:28:53;3.92;;;2.58;;
56868;SDS011;42754;0.000;0.000;2022-09-12T17:31:19;3.47;;;2.67;;
56868;SDS011;42754;0.000;0.000;2022-09-12T17:33:44;5.03;;;3.33;;
56868;SDS011;42754;0.000;0.000;2022-09-12T17:36:14;14.57;;;5.57;;
56868;SDS011;42754;0.000;0.000;2022-09-12T17:38:41;9.18;;;4.00;;
56868;SDS011;42754;0.000;0.000;2022-09-12T17:43:42;9.60;;;3.10;;
56868;SDS011;42754;0.000;0.000;2022-09-12T17:46:09;11.20;;;4.57;;
56868;SDS011;42754;0.000;0.000;2022-09-12T17:48:34;9.30;;;4.25;;
56868;SDS011;42754;0.000;0.000;2022-09-12T17:51:10;10.75;;;4.78;;
56868;SDS011;42754;0.000;0.000;2022-09-12T17:53:38;9.85;;;3.55;;
56868;SDS011;42754;0.000;0.000;2022-09-12T17:56:04;6.55;;;3.35;;
56868;SDS011;42754;0.000;0.000;2022-09-12T17:58:31;4.20;;;3.13;;
56868;SDS011;42754;0.000;0.000;2022-09-12T18:01:03;5.30;;;3.35;;
56868;SDS011;42754;0.000;0.000;2022-09-12T18:03:52;3.83;;;3.03;;
56868;SDS011;42754;0.000;0.000;2022-09-12T18:06:24;4.25;;;3.20;;
56868;SDS011;42754;0.000;0.000;2022-09-12T18:08:50;3.95;;;3.25;;
56868;SDS011;42754;0.000;0.000;2022-09-12T18:11:16;5.47;;;3.22;;
56868;SDS011;42754;0.000;0.000;2022-09-12T18:13:41;4.22;;;3.10;;
56868;SDS011;42754;0.000;0.000;2022-09-12T18:16:08;6.38;;;3.47;;
56868;SDS011;42754;0.000;0.000;2022-09-12T18:18:35;5.15;;;3.30;;
56868;SDS011;42754;0.000;0.000;2022-09-12T18:21:02;4.07;;;3.00;;
56868;SDS011;42754;0.000;0.000;2022-09-12T18:23:29;3.85;;;3.17;;